createdAt,value
2022-08-02T00:04:15.862Z,100104.95
2022-08-02T00:09:18.698Z,100107.04
2022-08-02T00:14:24.240Z,100108.08
2022-08-02T00:19:26.946Z,100112.77
2022-08-02T00:24:30.890Z,100118.73
2022-08-02T00:29:35.781Z,100122.96
2022-08-02T00:34:45.512Z,100124.28
2022-08-02T00:39:48.229Z,100123.66
2022-08-02T00:44:51.400Z,100125.36
2022-08-02T00:49:54.197Z,100130.52
2022-08-02T00:54:56.884Z,100135.84
2022-08-02T00:59:59.681Z,100137.69
2022-08-02T01:05:02.562Z,100138.69
2022-08-02T01:10:06.642Z,100138.08
2022-08-02T01:15:11.548Z,100139.74
2022-08-02T01:20:35.159Z,100141.46
2022-08-02T01:26:06.130Z,100141.07
2022-08-02T01:31:32.062Z,100146.38
2022-08-02T01:36:40.280Z,100143.04
2022-08-02T01:41:45.299Z,100142.59
2022-08-02T01:46:49.638Z,100148.05
2022-08-02T01:52:12.327Z,100145.56
2022-08-02T01:57:17.547Z,100149.83
2022-08-02T02:02:22.667Z,100146.92
2022-08-02T02:07:26.890Z,100151.34
2022-08-02T02:12:34.714Z,100158.51
2022-08-02T02:17:52.668Z,100159.60
2022-08-02T02:23:05.933Z,100157.86
2022-08-02T02:28:12.508Z,100157.41
2022-08-02T02:33:19.230Z,100158.01
2022-08-02T02:38:22.817Z,100155.65
2022-08-02T02:43:28.838Z,100154.79
2022-08-02T02:48:32.558Z,100148.25
2022-08-02T02:54:31.110Z,100145.36
2022-08-02T02:59:00.811Z,100146.13
2022-08-02T03:04:07.464Z,100144.70
2022-08-02T03:09:11.430Z,100147.73
2022-08-02T03:14:14.885Z,100150.86
2022-08-02T03:19:19.314Z,100147.81
2022-08-02T03:24:28.317Z,100147.14
2022-08-02T03:29:34.463Z,100149.70
2022-08-02T03:34:37.841Z,100152.73
2022-08-02T03:39:52.928Z,100158.98
2022-08-02T03:44:57.065Z,100169.70
2022-08-02T03:50:01.217Z,100180.46
2022-08-02T03:55:05.076Z,100186.35
2022-08-02T04:00:10.232Z,100190.48
2022-08-02T04:05:13.039Z,100201.84
2022-08-02T04:10:16.383Z,100203.78
2022-08-02T04:15:19.287Z,100211.59
2022-08-02T04:20:28.885Z,100213.05
2022-08-02T04:25:34.272Z,100217.38
2022-08-02T04:30:39.698Z,100224.14
2022-08-02T04:35:42.958Z,100227.38
2022-08-02T04:40:55.463Z,100231.88
2022-08-02T04:45:58.291Z,100235.52
2022-08-02T04:51:01.008Z,100248.39
2022-08-02T04:56:03.949Z,100249.77
2022-08-02T05:01:06.818Z,100251.35
2022-08-02T05:06:19.125Z,100254.85
2022-08-02T05:11:30.058Z,100257.19
2022-08-02T05:16:39.488Z,100262.38
2022-08-02T05:21:42.209Z,100272.50
2022-08-02T05:26:44.918Z,100285.42
2022-08-02T05:31:47.679Z,100293.52
2022-08-02T05:36:50.409Z,100302.18
2022-08-02T05:41:53.717Z,100306.21
2022-08-02T05:46:56.517Z,100310.10
2022-08-02T05:52:17.466Z,100305.10
2022-08-02T05:57:23.225Z,100314.11
2022-08-02T06:02:41.071Z,100318.98
2022-08-02T06:07:45.926Z,100322.50
2022-08-02T06:12:56.784Z,100326.29
2022-08-02T06:18:00.071Z,100328.29
2022-08-02T06:23:10.826Z,100330.70
2022-08-02T06:28:19.020Z,100343.05
2022-08-02T06:33:23.716Z,100344.74
2022-08-02T06:38:32.633Z,100342.86
2022-08-02T06:43:55.445Z,100347.54
2022-08-02T06:48:58.652Z,100345.83
2022-08-02T06:54:01.572Z,100361.05
2022-08-02T06:59:06.071Z,100364.73
2022-08-02T07:04:09.943Z,100362.11
2022-08-02T07:09:21.589Z,100361.40
2022-08-02T07:14:24.979Z,100369.73
2022-08-02T07:19:37.728Z,100373.29
2022-08-02T07:24:41.010Z,100371.01
2022-08-02T07:29:46.071Z,100372.48
2022-08-02T07:34:53.578Z,100378.30
2022-08-02T07:39:57.834Z,100379.51
2022-08-02T07:45:00.626Z,100380.75
2022-08-02T07:50:04.301Z,100385.87
2022-08-02T07:55:08.268Z,100389.96
2022-08-02T08:00:11.704Z,100392.11
2022-08-02T08:05:14.995Z,100390.11
2022-08-02T08:10:18.040Z,100392.24
2022-08-02T08:15:21.632Z,100394.73
2022-08-02T08:20:24.583Z,100392.17
2022-08-02T08:25:27.465Z,100391.10
2022-08-02T08:30:32.757Z,100388.75
2022-08-02T08:35:35.890Z,100387.05
2022-08-02T08:40:39.357Z,100381.51
2022-08-02T08:45:46.216Z,100389.38
2022-08-02T08:51:07.407Z,100386.77
2022-08-02T08:56:15.895Z,100389.06
2022-08-02T09:01:19.997Z,100384.30
2022-08-02T09:06:23.240Z,100387.52
2022-08-02T09:11:26.477Z,100395.20
2022-08-02T09:16:30.676Z,100397.45
2022-08-02T09:21:38.264Z,100394.73
2022-08-02T09:26:42.426Z,100399.46
2022-08-02T09:31:49.985Z,100400.70
2022-08-02T09:36:54.526Z,100394.67
2022-08-02T09:42:10.877Z,100396.87
2022-08-02T09:47:16.864Z,100394.19
2022-08-02T09:52:37.256Z,100396.61
2022-08-02T09:57:51.045Z,100389.66
2022-08-02T10:03:14.889Z,100387.08
2022-08-02T10:08:26.582Z,100381.80
2022-08-02T10:13:34.809Z,100381.39
2022-08-02T10:18:39.784Z,100379.77
2022-08-02T10:23:45.730Z,100379.34
2022-08-02T10:28:50.588Z,100366.64
2022-08-02T10:33:56.175Z,100372.82
2022-08-02T10:39:01.441Z,100367.88
2022-08-02T10:44:05.279Z,100376.20
2022-08-02T10:54:48.671Z,100368.66
2022-08-02T11:00:30.359Z,100370.09
2022-08-02T11:05:43.007Z,100364.63
2022-08-02T11:10:47.223Z,100361.63
2022-08-02T11:16:05.393Z,100359.46
2022-08-02T11:21:25.819Z,100349.91
2022-08-02T11:26:31.546Z,100348.87
2022-08-02T11:31:43.411Z,100346.08
2022-08-02T11:36:48.474Z,100342.91
2022-08-02T11:41:58.809Z,100336.52
2022-08-02T11:47:03.709Z,100330.15
2022-08-02T11:52:11.146Z,100326.43
2022-08-02T11:57:21.483Z,100328.10
2022-08-02T12:02:32.719Z,100340.38
2022-08-02T12:07:45.725Z,100339.60
2022-08-02T12:12:54.350Z,100335.38
2022-08-02T12:18:16.709Z,100323.54
2022-08-02T12:23:19.365Z,100318.96
2022-08-02T12:28:26.796Z,100317.88
2022-08-02T12:33:45.239Z,100316.27
2022-08-02T12:38:55.969Z,100316.05
2022-08-02T12:43:59.173Z,100315.19
2022-08-02T12:49:17.224Z,100315.25
2022-08-02T12:54:31.207Z,100321.21
2022-08-02T12:59:38.933Z,100315.66
2022-08-02T13:04:49.858Z,100319.88
2022-08-02T13:10:02.658Z,100320.41
2022-08-02T13:15:12.423Z,100322.60
2022-08-02T13:20:34.564Z,100315.23
2022-08-02T13:25:37.378Z,100318.43
2022-08-02T13:30:40.207Z,100313.16
2022-08-02T13:35:44.309Z,100309.81
2022-08-02T13:41:05.546Z,100300.09
2022-08-02T13:46:08.577Z,100297.22
2022-08-02T13:51:14.957Z,100292.73
2022-08-02T13:56:17.853Z,100293.20
2022-08-02T14:01:20.653Z,100290.99
2022-08-02T14:06:23.452Z,100287.49
2022-08-02T14:11:26.565Z,100284.36
2022-08-02T14:16:33.112Z,100292.38
2022-08-02T14:21:47.058Z,100288.91
2022-08-02T14:26:51.068Z,100281.09
2022-08-02T14:31:53.849Z,100277.32
2022-08-02T14:36:57.064Z,100279.65
2022-08-02T14:42:00.895Z,100281.95
2022-08-02T14:47:06.039Z,100277.02
2022-08-02T14:52:08.963Z,100278.65
2022-08-02T14:57:11.924Z,100278.88
2022-08-02T15:02:15.174Z,100270.38
2022-08-02T15:07:18.294Z,100266.52
2022-08-02T15:12:21.199Z,100268.18
2022-08-02T15:17:23.955Z,100265.02
2022-08-02T15:22:26.951Z,100266.55
2022-08-02T15:27:29.680Z,100259.34
2022-08-02T15:32:32.392Z,100260.89
2022-08-02T15:37:39.522Z,100257.84
2022-08-02T15:42:44.554Z,100256.94
2022-08-02T15:47:48.077Z,100256.55
2022-08-02T15:52:53.387Z,100257.95
2022-08-02T15:57:56.100Z,100259.35
2022-08-02T16:02:58.853Z,100260.44
2022-08-02T16:08:01.758Z,100268.28
2022-08-02T16:13:23.062Z,100261.52
2022-08-02T16:18:25.822Z,100260.48
2022-08-02T16:24:02.437Z,100262.38
2022-08-02T16:28:52.448Z,100267.08
2022-08-02T16:33:57.180Z,100269.70
2022-08-02T16:39:00.262Z,100272.23
2022-08-02T16:44:03.016Z,100276.58
2022-08-02T16:49:06.171Z,100279.65
2022-08-02T16:54:28.811Z,100285.56
2022-08-02T16:59:41.846Z,100288.77
2022-08-02T17:04:48.045Z,100296.11
2022-08-02T17:10:01.917Z,100294.25
2022-08-02T17:16:01.122Z,100297.76
2022-08-02T17:20:31.334Z,100292.77
2022-08-02T17:25:37.577Z,100298.35
2022-08-02T17:30:44.755Z,100302.42
2022-08-02T17:35:52.681Z,100302.61
2022-08-02T17:40:56.348Z,100312.61
2022-08-02T17:46:00.534Z,100306.73
2022-08-02T17:51:05.504Z,100300.60
2022-08-02T17:56:08.714Z,100308.36
2022-08-02T18:01:23.853Z,100314.29
2022-08-02T18:06:27.130Z,100314.42
2022-08-02T18:11:52.378Z,100325.20
2022-08-02T18:16:53.062Z,100336.30
2022-08-02T18:21:55.765Z,100345.77
2022-08-02T18:26:58.875Z,100344.50
2022-08-02T18:32:01.959Z,100350.70
2022-08-02T18:37:04.907Z,100358.17
2022-08-02T18:42:09.516Z,100368.25
2022-08-02T18:47:13.460Z,100373.63
2022-08-02T18:52:30.963Z,100377.59
2022-08-02T18:58:18.988Z,100385.87
2022-08-02T19:02:59.592Z,100389.55
2022-08-02T19:08:03.070Z,100391.02
2022-08-02T19:13:17.604Z,100386.68
2022-08-02T19:18:26.751Z,100391.29
2022-08-02T19:23:32.807Z,100387.31
2022-08-02T19:28:35.505Z,100393.07
2022-08-02T19:34:04.914Z,100398.42
2022-08-02T19:39:02.788Z,100399.73
2022-08-02T19:44:24.506Z,100396.23
2022-08-02T19:49:40.191Z,100390.63
2022-08-02T19:54:55.545Z,100394.39
2022-08-02T20:00:00.368Z,100392.17
2022-08-02T20:05:16.047Z,100392.17
2022-08-02T20:10:23.924Z,100394.65
2022-08-02T20:15:51.722Z,100397.02
2022-08-02T20:20:51.596Z,100392.00
2022-08-02T20:25:54.542Z,100397.81
2022-08-02T20:30:59.084Z,100395.02
2022-08-02T20:36:10.172Z,100393.19
2022-08-02T20:41:21.584Z,100393.70
2022-08-02T20:46:24.989Z,100385.81
2022-08-02T20:51:33.420Z,100381.83
2022-08-02T20:56:37.613Z,100378.79
2022-08-02T21:01:41.212Z,100379.35
2022-08-02T21:07:00.806Z,100381.26
2022-08-02T21:12:03.660Z,100381.70
2022-08-02T21:17:10.637Z,100385.71
2022-08-02T21:22:13.769Z,100381.06
2022-08-02T21:27:53.178Z,100382.46
2022-08-02T21:32:40.548Z,100381.96
2022-08-02T21:37:45.228Z,100385.49
2022-08-02T21:42:48.150Z,100390.77
2022-08-02T21:47:51.898Z,100400.00
2022-08-02T21:52:54.759Z,100406.41
2022-08-02T21:57:57.526Z,100406.83
2022-08-02T22:03:00.292Z,100408.79
2022-08-02T22:08:22.953Z,100411.05
2022-08-02T22:13:26.585Z,100410.79
2022-08-02T22:18:41.378Z,100414.15
2022-08-02T22:23:53.159Z,100416.12
2022-08-02T22:28:59.616Z,100421.13
2022-08-02T22:34:05.711Z,100421.73
2022-08-02T22:39:19.370Z,100424.52
2022-08-02T22:44:22.623Z,100422.81
2022-08-02T22:49:38.567Z,100428.86
2022-08-02T22:54:48.089Z,100428.63
2022-08-02T22:59:50.892Z,100424.21
2022-08-02T23:04:53.614Z,100422.84
2022-08-02T23:09:56.548Z,100429.34
2022-08-02T23:14:59.576Z,100429.38
2022-08-02T23:20:02.890Z,100427.73
2022-08-02T23:25:07.710Z,100424.51
2022-08-02T23:30:10.805Z,100420.98
2022-08-02T23:35:17.242Z,100418.98
2022-08-02T23:40:39.105Z,100408.83
2022-08-02T23:45:45.732Z,100406.20
2022-08-02T23:50:48.641Z,100406.87
2022-08-02T23:55:51.372Z,100406.08
